sensor_id;sensor_type;location;lat;lon;timestamp;pressure;altitude;pressure_sealevel;temperature;humidity
31299;BME280;17927;52.350;13.402;2023-02-02T00:00:41;100434.81;;;8.01;58.68
31299;BME280;17927;52.350;13.402;2023-02-02T00:03:07;100434.66;;;8.03;58.37
31299;BME280;17927;52.350;13.402;2023-02-02T00:05:32;100431.00;;;8.04;58.85
31299;BME280;17927;52.350;13.402;2023-02-02T00:07:58;100424.50;;;8.06;58.65
31299;BME280;17927;52.350;13.402;2023-02-02T00:10:23;100441.22;;;8.10;58.96
31299;BME280;17927;52.350;13.402;2023-02-02T00:12:48;100432.88;;;8.13;58.73
31299;BME280;17927;52.350;13.402;2023-02-02T00:15:13;100418.31;;;8.16;58.66
31299;BME280;17927;52.350;13.402;2023-02-02T00:17:39;100420.59;;;8.20;58.98
31299;BME280;17927;52.350;13.402;2023-02-02T00:20:04;100398.78;;;8.23;58.83
31299;BME280;17927;52.350;13.402;2023-02-02T00:22:29;100402.75;;;8.29;58.96
31299;BME280;17927;52.350;13.402;2023-02-02T00:24:55;100403.38;;;8.33;58.96
31299;BME280;17927;52.350;13.402;2023-02-02T00:27:20;100404.78;;;8.37;58.64
31299;BME280;17927;52.350;13.402;2023-02-02T00:29:45;100415.13;;;8.42;58.39
31299;BME280;17927;52.350;13.402;2023-02-02T00:32:10;100400.56;;;8.44;58.83
31299;BME280;17927;52.350;13.402;2023-02-02T00:34:35;100396.66;;;8.48;58.65
31299;BME280;17927;52.350;13.402;2023-02-02T00:37:01;100407.97;;;8.52;58.56
31299;BME280;17927;52.350;13.402;2023-02-02T00:39:26;100406.84;;;8.55;58.59
31299;BME280;17927;52.350;13.402;2023-02-02T00:41:52;100402.03;;;8.58;58.48
31299;BME280;17927;52.350;13.402;2023-02-02T00:44:17;100404.44;;;8.61;58.37
31299;BME280;17927;52.350;13.402;2023-02-02T00:47:01;100401.47;;;8.64;58.42
31299;BME280;17927;52.350;13.402;2023-02-02T00:49:27;100395.66;;;8.69;58.27
31299;BME280;17927;52.350;13.402;2023-02-02T00:51:52;100406.31;;;8.71;58.54
31299;BME280;17927;52.350;13.402;2023-02-02T00:54:17;100402.34;;;8.75;58.39
31299;BME280;17927;52.350;13.402;2023-02-02T00:56:43;100392.16;;;8.78;58.44
31299;BME280;17927;52.350;13.402;2023-02-02T00:59:08;100382.94;;;8.81;58.60
31299;BME280;17927;52.350;13.402;2023-02-02T01:01:34;100394.41;;;8.83;57.89
31299;BME280;17927;52.350;13.402;2023-02-02T01:03:59;100396.97;;;8.84;57.99
31299;BME280;17927;52.350;13.402;2023-02-02T01:06:24;100405.75;;;8.87;58.29
31299;BME280;17927;52.350;13.402;2023-02-02T01:08:50;100406.47;;;8.89;58.21
31299;BME280;17927;52.350;13.402;2023-02-02T01:11:16;100396.41;;;8.91;58.48
31299;BME280;17927;52.350;13.402;2023-02-02T01:13:41;100398.13;;;8.92;58.11
31299;BME280;17927;52.350;13.402;2023-02-02T01:16:08;100390.75;;;8.94;58.44
31299;BME280;17927;52.350;13.402;2023-02-02T01:18:33;100406.91;;;8.94;58.44
31299;BME280;17927;52.350;13.402;2023-02-02T01:21:00;100415.69;;;8.96;58.24
31299;BME280;17927;52.350;13.402;2023-02-02T01:23:26;100401.09;;;8.98;58.26
31299;BME280;17927;52.350;13.402;2023-02-02T01:25:56;100402.81;;;8.99;58.43
31299;BME280;17927;52.350;13.402;2023-02-02T01:28:23;100399.81;;;9.03;58.50
31299;BME280;17927;52.350;13.402;2023-02-02T01:30:48;100404.19;;;9.04;58.55
31299;BME280;17927;52.350;13.402;2023-02-02T01:33:15;100412.00;;;9.07;58.54
31299;BME280;17927;52.350;13.402;2023-02-02T01:35:45;100425.47;;;9.07;58.53
31299;BME280;17927;52.350;13.402;2023-02-02T01:38:10;100411.88;;;9.08;58.26
31299;BME280;17927;52.350;13.402;2023-02-02T01:40:35;100417.97;;;9.10;58.38
31299;BME280;17927;52.350;13.402;2023-02-02T01:43:01;100428.59;;;9.12;58.57
31299;BME280;17927;52.350;13.402;2023-02-02T01:45:27;100422.94;;;9.15;58.37
31299;BME280;17927;52.350;13.402;2023-02-02T01:47:56;100426.34;;;9.17;58.50
31299;BME280;17927;52.350;13.402;2023-02-02T01:50:28;100429.03;;;9.17;58.64
31299;BME280;17927;52.350;13.402;2023-02-02T01:52:56;100436.13;;;9.18;58.87
31299;BME280;17927;52.350;13.402;2023-02-02T01:55:25;100443.34;;;9.18;58.73
31299;BME280;17927;52.350;13.402;2023-02-02T01:58:08;100442.63;;;9.16;59.22
31299;BME280;17927;52.350;13.402;2023-02-02T02:00:35;100440.09;;;9.14;58.92
31299;BME280;17927;52.350;13.402;2023-02-02T02:03:05;100440.09;;;9.14;59.23
31299;BME280;17927;52.350;13.402;2023-02-02T02:05:40;100431.03;;;9.15;59.11
31299;BME280;17927;52.350;13.402;2023-02-02T02:08:17;100431.16;;;9.13;59.67
31299;BME280;17927;52.350;13.402;2023-02-02T02:10:42;100423.06;;;9.13;59.62
31299;BME280;17927;52.350;13.402;2023-02-02T02:13:08;100432.84;;;9.14;59.29
31299;BME280;17927;52.350;13.402;2023-02-02T02:15:40;100436.41;;;9.15;59.33
31299;BME280;17927;52.350;13.402;2023-02-02T02:22:00;100443.91;;;9.11;59.20
31299;BME280;17927;52.350;13.402;2023-02-02T02:25:10;100442.91;;;9.12;59.71
31299;BME280;17927;52.350;13.402;2023-02-02T02:28:33;100444.22;;;9.08;59.43
31299;BME280;17927;52.350;13.402;2023-02-02T02:31:17;100435.25;;;9.08;59.47
31299;BME280;17927;52.350;13.402;2023-02-02T02:36:29;100448.31;;;9.12;59.47
31299;BME280;17927;52.350;13.402;2023-02-02T02:39:15;100446.47;;;9.13;59.55
31299;BME280;17927;52.350;13.402;2023-02-02T02:41:47;100443.78;;;9.13;59.45
31299;BME280;17927;52.350;13.402;2023-02-02T02:44:15;100436.69;;;9.12;59.62
31299;BME280;17927;52.350;13.402;2023-02-02T02:46:42;100439.09;;;9.15;59.34
31299;BME280;17927;52.350;13.402;2023-02-02T02:49:10;100446.22;;;9.16;59.37
31299;BME280;17927;52.350;13.402;2023-02-02T02:51:53;100429.03;;;9.17;59.37
31299;BME280;17927;52.350;13.402;2023-02-02T02:54:26;100459.53;;;9.18;59.57
31299;BME280;17927;52.350;13.402;2023-02-02T03:03:07;100465.63;;;9.20;59.65
31299;BME280;17927;52.350;13.402;2023-02-02T03:05:52;100473.44;;;9.23;59.68
31299;BME280;17927;52.350;13.402;2023-02-02T03:08:26;100478.81;;;9.23;59.40
31299;BME280;17927;52.350;13.402;2023-02-02T03:10:55;100474.84;;;9.27;59.79
31299;BME280;17927;52.350;13.402;2023-02-02T03:13:22;100482.94;;;9.27;59.53
31299;BME280;17927;52.350;13.402;2023-02-02T03:15:48;100490.88;;;9.28;59.57
31299;BME280;17927;52.350;13.402;2023-02-02T03:18:16;100485.34;;;9.30;59.82
31299;BME280;17927;52.350;13.402;2023-02-02T03:20:42;100504.09;;;9.32;59.30
31299;BME280;17927;52.350;13.402;2023-02-02T03:23:08;100507.78;;;9.31;59.28
31299;BME280;17927;52.350;13.402;2023-02-02T03:25:34;100515.72;;;9.32;59.28
31299;BME280;17927;52.350;13.402;2023-02-02T03:27:59;100515.00;;;9.30;59.56
31299;BME280;17927;52.350;13.402;2023-02-02T03:30:25;100522.38;;;9.28;59.35
31299;BME280;17927;52.350;13.402;2023-02-02T03:32:50;100528.75;;;9.27;59.59
31299;BME280;17927;52.350;13.402;2023-02-02T03:35:16;100539.69;;;9.25;59.59
31299;BME280;17927;52.350;13.402;2023-02-02T03:37:42;100539.69;;;9.25;59.34
31299;BME280;17927;52.350;13.402;2023-02-02T03:40:07;100542.53;;;9.24;59.52
31299;BME280;17927;52.350;13.402;2023-02-02T03:42:33;100551.31;;;9.26;59.77
31299;BME280;17927;52.350;13.402;2023-02-02T03:44:58;100554.16;;;9.24;59.50
31299;BME280;17927;52.350;13.402;2023-02-02T03:47:27;100556.00;;;9.24;59.81
31299;BME280;17927;52.350;13.402;2023-02-02T03:49:52;100563.09;;;9.25;59.69
31299;BME280;17927;52.350;13.402;2023-02-02T03:52:17;100559.53;;;9.24;59.49
31299;BME280;17927;52.350;13.402;2023-02-02T03:54:42;100575.59;;;9.26;59.45
31299;BME280;17927;52.350;13.402;2023-02-02T03:57:08;100572.91;;;9.26;59.40
31299;BME280;17927;52.350;13.402;2023-02-02T03:59:33;100579.28;;;9.25;59.81
31299;BME280;17927;52.350;13.402;2023-02-02T04:01:58;100594.47;;;9.26;59.69
31299;BME280;17927;52.350;13.402;2023-02-02T04:04:23;100587.22;;;9.26;59.72
31299;BME280;17927;52.350;13.402;2023-02-02T04:06:48;100590.06;;;9.25;59.55
31299;BME280;17927;52.350;13.402;2023-02-02T04:09:14;100595.28;;;9.26;59.63
31299;BME280;17927;52.350;13.402;2023-02-02T04:11:39;100600.41;;;9.29;59.62
31299;BME280;17927;52.350;13.402;2023-02-02T04:14:04;100597.84;;;9.28;59.66
31299;BME280;17927;52.350;13.402;2023-02-02T04:16:31;100604.09;;;9.28;59.44
31299;BME280;17927;52.350;13.402;2023-02-02T04:18:58;100601.41;;;9.28;59.66
31299;BME280;17927;52.350;13.402;2023-02-02T04:21:24;100610.31;;;9.29;59.63
31299;BME280;17927;52.350;13.402;2023-02-02T04:23:49;100614.72;;;9.30;59.78
31299;BME280;17927;52.350;13.402;2023-02-02T04:26:14;100607.63;;;9.29;59.63
31299;BME280;17927;52.350;13.402;2023-02-02T04:28:39;100624.69;;;9.29;59.35
31299;BME280;17927;52.350;13.402;2023-02-02T04:31:05;100629.06;;;9.31;59.62
31299;BME280;17927;52.350;13.402;2023-02-02T04:33:30;100629.91;;;9.31;59.19
31299;BME280;17927;52.350;13.402;2023-02-02T04:35:55;100639.72;;;9.32;59.42
31299;BME280;17927;52.350;13.402;2023-02-02T04:38:20;100644.25;;;9.32;59.31
31299;BME280;17927;52.350;13.402;2023-02-02T04:40:47;100647.78;;;9.32;59.57
31299;BME280;17927;52.350;13.402;2023-02-02T04:43:12;100649.50;;;9.33;59.49
31299;BME280;17927;52.350;13.402;2023-02-02T04:45:38;100647.69;;;9.34;59.53
31299;BME280;17927;52.350;13.402;2023-02-02T04:48:04;100662.00;;;9.34;59.38
31299;BME280;17927;52.350;13.402;2023-02-02T04:50:29;100652.91;;;9.35;59.43
31299;BME280;17927;52.350;13.402;2023-02-02T04:52:55;100657.59;;;9.33;59.04
31299;BME280;17927;52.350;13.402;2023-02-02T04:55:20;100659.31;;;9.34;59.33
31299;BME280;17927;52.350;13.402;2023-02-02T04:57:45;100672.78;;;9.34;59.08
31299;BME280;17927;52.350;13.402;2023-02-02T05:00:11;100680.03;;;9.34;59.42
31299;BME280;17927;52.350;13.402;2023-02-02T05:02:38;100649.34;;;9.35;59.11
31299;BME280;17927;52.350;13.402;2023-02-02T05:05:04;100670.09;;;9.34;59.02
31299;BME280;17927;52.350;13.402;2023-02-02T05:07:30;100689.78;;;9.35;59.24
31299;BME280;17927;52.350;13.402;2023-02-02T05:09:56;100693.22;;;9.37;59.05
31299;BME280;17927;52.350;13.402;2023-02-02T05:12:21;100690.50;;;9.37;58.90
31299;BME280;17927;52.350;13.402;2023-02-02T05:14:46;100701.19;;;9.38;58.92
31299;BME280;17927;52.350;13.402;2023-02-02T05:17:11;100698.34;;;9.40;58.94
31299;BME280;17927;52.350;13.402;2023-02-02T05:19:37;100706.56;;;9.38;59.08
31299;BME280;17927;52.350;13.402;2023-02-02T05:22:02;100720.06;;;9.38;59.14
31299;BME280;17927;52.350;13.402;2023-02-02T05:24:27;100728.72;;;9.42;59.06
31299;BME280;17927;52.350;13.402;2023-02-02T05:26:52;100731.41;;;9.42;59.08
31299;BME280;17927;52.350;13.402;2023-02-02T05:29:22;100728.72;;;9.42;58.82
31299;BME280;17927;52.350;13.402;2023-02-02T05:31:47;100734.09;;;9.42;58.74
31299;BME280;17927;52.350;13.402;2023-02-02T05:34:13;100739.50;;;9.42;58.58
31299;BME280;17927;52.350;13.402;2023-02-02T05:36:38;100753.81;;;9.42;58.66
31299;BME280;17927;52.350;13.402;2023-02-02T05:39:03;100745.19;;;9.49;58.94
31299;BME280;17927;52.350;13.402;2023-02-02T05:41:29;100751.78;;;9.56;59.05
31299;BME280;17927;52.350;13.402;2023-02-02T05:43:55;100745.09;;;9.60;58.71
31299;BME280;17927;52.350;13.402;2023-02-02T05:46:22;100768.25;;;9.63;58.66
31299;BME280;17927;52.350;13.402;2023-02-02T05:48:47;100761.88;;;9.64;58.66
31299;BME280;17927;52.350;13.402;2023-02-02T05:51:20;100762.88;;;9.63;58.51
31299;BME280;17927;52.350;13.402;2023-02-02T05:53:47;100762.00;;;9.62;58.46
31299;BME280;17927;52.350;13.402;2023-02-02T05:56:13;100762.97;;;9.61;58.40
31299;BME280;17927;52.350;13.402;2023-02-02T05:58:39;100771.06;;;9.61;58.28
31299;BME280;17927;52.350;13.402;2023-02-02T06:01:05;100779.16;;;9.61;58.53
31299;BME280;17927;52.350;13.402;2023-02-02T06:03:30;100785.44;;;9.62;58.18
31299;BME280;17927;52.350;13.402;2023-02-02T06:05:55;100790.94;;;9.60;58.19
31299;BME280;17927;52.350;13.402;2023-02-02T06:08:20;100788.25;;;9.60;58.33
31299;BME280;17927;52.350;13.402;2023-02-02T06:10:46;100790.94;;;9.60;58.19
31299;BME280;17927;52.350;13.402;2023-02-02T06:13:11;100799.19;;;9.58;58.31
31299;BME280;17927;52.350;13.402;2023-02-02T06:15:36;100799.34;;;9.57;58.28
31299;BME280;17927;52.350;13.402;2023-02-02T06:18:02;100805.72;;;9.56;58.25
31299;BME280;17927;52.350;13.402;2023-02-02T06:20:30;100813.81;;;9.56;58.20
31299;BME280;17927;52.350;13.402;2023-02-02T06:22:55;100813.06;;;9.54;58.24
31299;BME280;17927;52.350;13.402;2023-02-02T06:25:20;100824.84;;;9.53;58.17
31299;BME280;17927;52.350;13.402;2023-02-02T06:27:45;100828.66;;;9.50;58.10
31299;BME280;17927;52.350;13.402;2023-02-02T06:30:13;100836.75;;;9.50;58.26
31299;BME280;17927;52.350;13.402;2023-02-02T06:32:39;100832.47;;;9.48;57.87
31299;BME280;17927;52.350;13.402;2023-02-02T06:35:04;100835.19;;;9.48;57.97
31299;BME280;17927;52.350;13.402;2023-02-02T06:37:30;100839.72;;;9.47;57.77
31299;BME280;17927;52.350;13.402;2023-02-02T06:39:55;100844.50;;;9.43;57.66
31299;BME280;17927;52.350;13.402;2023-02-02T06:42:20;100848.34;;;9.41;58.05
31299;BME280;17927;52.350;13.402;2023-02-02T06:44:46;100845.06;;;9.37;57.54
31299;BME280;17927;52.350;13.402;2023-02-02T06:47:11;100859.53;;;9.36;57.89
31299;BME280;17927;52.350;13.402;2023-02-02T06:49:36;100856.94;;;9.35;57.65
31299;BME280;17927;52.350;13.402;2023-02-02T06:52:01;100868.03;;;9.32;57.58
31299;BME280;17927;52.350;13.402;2023-02-02T06:54:26;100867.28;;;9.29;57.42
31299;BME280;17927;52.350;13.402;2023-02-02T06:56:52;100869.13;;;9.29;57.40
31299;BME280;17927;52.350;13.402;2023-02-02T06:59:17;100886.28;;;9.28;57.68
31299;BME280;17927;52.350;13.402;2023-02-02T07:01:44;100885.56;;;9.26;57.38
31299;BME280;17927;52.350;13.402;2023-02-02T07:04:09;100893.66;;;9.26;57.41
31299;BME280;17927;52.350;13.402;2023-02-02T07:06:35;100891.81;;;9.26;57.34
31299;BME280;17927;52.350;13.402;2023-02-02T07:09:00;100906.13;;;9.27;57.54
31299;BME280;17927;52.350;13.402;2023-02-02T07:11:26;100905.28;;;9.26;57.61
31299;BME280;17927;52.350;13.402;2023-02-02T07:13:51;100902.59;;;9.26;57.48
31299;BME280;17927;52.350;13.402;2023-02-02T07:16:17;100901.88;;;9.24;57.48
31299;BME280;17927;52.350;13.402;2023-02-02T07:18:43;100913.53;;;9.25;57.31
31299;BME280;17927;52.350;13.402;2023-02-02T07:21:15;100929.69;;;9.25;57.45
31299;BME280;17927;52.350;13.402;2023-02-02T07:23:40;100931.41;;;9.26;57.50
31299;BME280;17927;52.350;13.402;2023-02-02T07:26:08;100934.94;;;9.26;57.70
31299;BME280;17927;52.350;13.402;2023-02-02T07:28:35;100940.91;;;9.30;57.30
31299;BME280;17927;52.350;13.402;2023-02-02T07:31:10;100939.94;;;9.31;57.43
31299;BME280;17927;52.350;13.402;2023-02-02T07:33:35;100946.19;;;9.32;57.82
31299;BME280;17927;52.350;13.402;2023-02-02T07:36:04;100949.75;;;9.32;57.49
31299;BME280;17927;52.350;13.402;2023-02-02T07:38:29;100957.72;;;9.34;57.61
31299;BME280;17927;52.350;13.402;2023-02-02T07:40:55;100960.41;;;9.34;57.53
31299;BME280;17927;52.350;13.402;2023-02-02T07:43:20;100956.84;;;9.33;57.40
31299;BME280;17927;52.350;13.402;2023-02-02T07:45:45;100965.06;;;9.32;57.55
31299;BME280;17927;52.350;13.402;2023-02-02T07:48:10;100968.50;;;9.34;57.37
31299;BME280;17927;52.350;13.402;2023-02-02T07:50:36;100979.00;;;9.37;57.65
31299;BME280;17927;52.350;13.402;2023-02-02T07:53:01;100970.41;;;9.43;58.22
31299;BME280;17927;52.350;13.402;2023-02-02T07:55:26;100968.75;;;9.52;58.22
31299;BME280;17927;52.350;13.402;2023-02-02T07:57:51;100986.84;;;9.61;58.15
31299;BME280;17927;52.350;13.402;2023-02-02T08:00:19;100966.22;;;9.71;58.38
31299;BME280;17927;52.350;13.402;2023-02-02T08:02:47;100983.72;;;9.77;58.07
31299;BME280;17927;52.350;13.402;2023-02-02T08:05:13;100995.09;;;9.81;57.88
31299;BME280;17927;52.350;13.402;2023-02-02T08:07:38;100998.50;;;9.83;58.13
31299;BME280;17927;52.350;13.402;2023-02-02T08:10:03;100993.97;;;9.83;57.84
31299;BME280;17927;52.350;13.402;2023-02-02T08:12:29;101011.00;;;9.84;58.07
31299;BME280;17927;52.350;13.402;2023-02-02T08:14:54;100996.78;;;9.82;58.35
31299;BME280;17927;52.350;13.402;2023-02-02T08:17:20;101010.28;;;9.82;58.23
31299;BME280;17927;52.350;13.402;2023-02-02T08:19:46;101024.63;;;9.82;58.07
31299;BME280;17927;52.350;13.402;2023-02-02T08:22:12;101025.59;;;9.81;58.15
31299;BME280;17927;52.350;13.402;2023-02-02T08:24:37;101024.50;;;9.84;58.45
31299;BME280;17927;52.350;13.402;2023-02-02T08:27:06;101023.38;;;9.86;58.22
31299;BME280;17927;52.350;13.402;2023-02-02T08:29:31;101025.09;;;9.87;58.26
31299;BME280;17927;52.350;13.402;2023-02-02T08:31:56;101027.78;;;9.87;58.19
31299;BME280;17927;52.350;13.402;2023-02-02T08:34:22;101032.19;;;9.88;58.21
31299;BME280;17927;52.350;13.402;2023-02-02T08:36:47;101033.78;;;9.91;58.06
31299;BME280;17927;52.350;13.402;2023-02-02T08:39:13;101039.63;;;9.96;58.47
31299;BME280;17927;52.350;13.402;2023-02-02T08:41:38;101042.06;;;9.99;58.47
31299;BME280;17927;52.350;13.402;2023-02-02T08:44:08;101036.28;;;10.04;58.39
31299;BME280;17927;52.350;13.402;2023-02-02T08:46:33;101051.63;;;10.03;58.09
31299;BME280;17927;52.350;13.402;2023-02-02T08:48:59;101049.19;;;10.00;57.95
31299;BME280;17927;52.350;13.402;2023-02-02T08:51:24;101053.97;;;9.97;57.84
31299;BME280;17927;52.350;13.402;2023-02-02T08:53:49;101047.72;;;9.96;57.78
31299;BME280;17927;52.350;13.402;2023-02-02T08:56:20;101051.16;;;9.98;58.02
31299;BME280;17927;52.350;13.402;2023-02-02T08:58:47;101046.34;;;10.02;58.34
31299;BME280;17927;52.350;13.402;2023-02-02T09:01:21;101056.47;;;10.10;58.22
31299;BME280;17927;52.350;13.402;2023-02-02T09:03:47;101049.69;;;10.15;58.09
31299;BME280;17927;52.350;13.402;2023-02-02T09:06:17;101048.19;;;10.23;58.17
31299;BME280;17927;52.350;13.402;2023-02-02T09:08:43;101045.06;;;10.27;58.11
31299;BME280;17927;52.350;13.402;2023-02-02T09:11:13;101058.91;;;10.34;58.02
31299;BME280;17927;52.350;13.402;2023-02-02T09:13:40;101062.09;;;10.39;58.02
31299;BME280;17927;52.350;13.402;2023-02-02T09:16:09;101061.53;;;10.45;57.65
31299;BME280;17927;52.350;13.402;2023-02-02T09:18:34;101063.56;;;10.53;57.72
31299;BME280;17927;52.350;13.402;2023-02-02T09:21:01;101066.47;;;10.61;57.58
31299;BME280;17927;52.350;13.402;2023-02-02T09:23:31;101080.53;;;10.65;57.54
31299;BME280;17927;52.350;13.402;2023-02-02T09:26:07;101078.41;;;10.69;57.24
31299;BME280;17927;52.350;13.402;2023-02-02T09:28:33;101074.47;;;10.73;57.29
31299;BME280;17927;52.350;13.402;2023-02-02T09:31:00;101082.88;;;10.79;57.53
31299;BME280;17927;52.350;13.402;2023-02-02T09:33:25;101094.72;;;10.88;57.62
31299;BME280;17927;52.350;13.402;2023-02-02T09:35:51;101087.06;;;10.93;57.66
31299;BME280;17927;52.350;13.402;2023-02-02T09:38:16;101093.19;;;10.95;57.40
31299;BME280;17927;52.350;13.402;2023-02-02T09:40:41;101095.59;;;10.99;57.35
31299;BME280;17927;52.350;13.402;2023-02-02T09:43:23;101104.44;;;11.01;57.14
31299;BME280;17927;52.350;13.402;2023-02-02T09:46:03;101108.00;;;11.01;56.93
31299;BME280;17927;52.350;13.402;2023-02-02T09:48:45;101123.66;;;10.98;56.70
31299;BME280;17927;52.350;13.402;2023-02-02T09:51:17;101122.78;;;10.97;56.53
31299;BME280;17927;52.350;13.402;2023-02-02T09:53:58;101121.94;;;10.96;56.28
31299;BME280;17927;52.350;13.402;2023-02-02T09:56:34;101130.88;;;10.97;56.32
31299;BME280;17927;52.350;13.402;2023-02-02T09:59:02;101128.34;;;10.95;56.46
31299;BME280;17927;52.350;13.402;2023-02-02T10:01:36;101117.53;;;10.95;56.01
31299;BME280;17927;52.350;13.402;2023-02-02T10:04:20;101108.41;;;10.96;56.23
31299;BME280;17927;52.350;13.402;2023-02-02T10:06:49;101127.34;;;10.96;56.22
31299;BME280;17927;52.350;13.402;2023-02-02T10:09:19;101124.50;;;10.98;55.48
31299;BME280;17927;52.350;13.402;2023-02-02T10:11:54;101123.75;;;10.96;55.60
31299;BME280;17927;52.350;13.402;2023-02-02T10:14:28;101126.47;;;10.96;55.26
31299;BME280;17927;52.350;13.402;2023-02-02T10:16:59;101115.38;;;10.99;55.62
31299;BME280;17927;52.350;13.402;2023-02-02T10:19:27;101133.63;;;11.07;55.90
31299;BME280;17927;52.350;13.402;2023-02-02T10:24:25;101140.63;;;11.19;55.65
31299;BME280;17927;52.350;13.402;2023-02-02T10:26:55;101145.78;;;11.22;55.54
31299;BME280;17927;52.350;13.402;2023-02-02T10:32:21;101140.25;;;11.34;54.73
31299;BME280;17927;52.350;13.402;2023-02-02T10:44:02;101150.22;;;11.33;54.26
31299;BME280;17927;52.350;13.402;2023-02-02T10:46:37;101138.81;;;11.30;54.46
31299;BME280;17927;52.350;13.402;2023-02-02T10:49:21;101164.00;;;11.30;54.19
31299;BME280;17927;52.350;13.402;2023-02-02T10:54:36;101163.28;;;11.28;53.89
31299;BME280;17927;52.350;13.402;2023-02-02T10:57:06;101166.00;;;11.28;53.85
31299;BME280;17927;52.350;13.402;2023-02-02T10:59:37;101164.84;;;11.31;53.94
31299;BME280;17927;52.350;13.402;2023-02-02T11:02:12;101170.88;;;11.34;53.91
31299;BME280;17927;52.350;13.402;2023-02-02T11:04:37;101170.44;;;11.39;53.94
31299;BME280;17927;52.350;13.402;2023-02-02T11:07:21;101183.09;;;11.38;53.70
31299;BME280;17927;52.350;13.402;2023-02-02T11:09:46;101187.13;;;11.44;53.92
31299;BME280;17927;52.350;13.402;2023-02-02T11:12:18;101196.53;;;11.50;53.68
31299;BME280;17927;52.350;13.402;2023-02-02T11:15:03;101194.25;;;11.55;53.42
31299;BME280;17927;52.350;13.402;2023-02-02T11:17:32;101197.56;;;11.58;53.02
31299;BME280;17927;52.350;13.402;2023-02-02T11:19:58;101194.56;;;11.62;53.29
31299;BME280;17927;52.350;13.402;2023-02-02T11:24:57;101195.28;;;11.73;53.05
31299;BME280;17927;52.350;13.402;2023-02-02T11:29:57;101194.56;;;11.71;53.08
31299;BME280;17927;52.350;13.402;2023-02-02T11:32:32;101211.41;;;11.75;52.50
31299;BME280;17927;52.350;13.402;2023-02-02T11:37:26;101216.97;;;11.83;52.83
31299;BME280;17927;52.350;13.402;2023-02-02T11:39:51;101212.00;;;11.88;52.64
31299;BME280;17927;52.350;13.402;2023-02-02T11:42:19;101214.00;;;11.96;52.37
31299;BME280;17927;52.350;13.402;2023-02-02T11:44:48;101223.44;;;12.02;52.48
31299;BME280;17927;52.350;13.402;2023-02-02T11:47:20;101219.16;;;12.09;51.75
31299;BME280;17927;52.350;13.402;2023-02-02T11:49:46;101214.47;;;12.11;51.85
31299;BME280;17927;52.350;13.402;2023-02-02T11:52:18;101225.72;;;12.16;51.54
31299;BME280;17927;52.350;13.402;2023-02-02T11:54:46;101225.47;;;12.20;51.76
31299;BME280;17927;52.350;13.402;2023-02-02T11:57:17;101235.84;;;12.24;51.16
31299;BME280;17927;52.350;13.402;2023-02-02T11:59:44;101240.28;;;12.25;51.06
31299;BME280;17927;52.350;13.402;2023-02-02T12:04:45;101237.13;;;12.20;50.66
31299;BME280;17927;52.350;13.402;2023-02-02T12:07:27;101236.41;;;12.18;50.92
31299;BME280;17927;52.350;13.402;2023-02-02T12:09:57;101242.25;;;12.13;50.94
31299;BME280;17927;52.350;13.402;2023-02-02T12:17:44;101248.94;;;12.09;51.11
31299;BME280;17927;52.350;13.402;2023-02-02T12:31:32;101244.91;;;11.94;51.36
31299;BME280;17927;52.350;13.402;2023-02-02T12:34:25;101256.44;;;11.96;51.60
31299;BME280;17927;52.350;13.402;2023-02-02T12:40:21;101305.47;;;11.83;51.69
31299;BME280;17927;52.350;13.402;2023-02-02T12:56:36;101311.94;;;11.08;52.76
31299;BME280;17927;52.350;13.402;2023-02-02T12:59:13;101309.94;;;11.10;53.97
31299;BME280;17927;52.350;13.402;2023-02-02T13:01:51;101319.66;;;11.13;53.77
31299;BME280;17927;52.350;13.402;2023-02-02T13:04:31;101323.34;;;11.12;53.51
31299;BME280;17927;52.350;13.402;2023-02-02T13:09:45;101327.41;;;11.06;53.38
31299;BME280;17927;52.350;13.402;2023-02-02T13:12:16;101328.44;;;11.05;53.19
31299;BME280;17927;52.350;13.402;2023-02-02T13:14:50;101333.84;;;11.05;53.09
31299;BME280;17927;52.350;13.402;2023-02-02T13:17:27;101335.53;;;11.06;53.12
31299;BME280;17927;52.350;13.402;2023-02-02T13:20:00;101336.66;;;11.04;53.41
31299;BME280;17927;52.350;13.402;2023-02-02T13:22:39;101335.94;;;11.02;53.05
31299;BME280;17927;52.350;13.402;2023-02-02T13:25:08;101350.59;;;10.99;52.93
31299;BME280;17927;52.350;13.402;2023-02-02T13:27:41;101352.56;;;10.97;53.33
31299;BME280;17927;52.350;13.402;2023-02-02T13:30:24;101355.84;;;11.01;54.14
31299;BME280;17927;52.350;13.402;2023-02-02T13:32:52;101367.88;;;11.08;55.18
31299;BME280;17927;52.350;13.402;2023-02-02T13:35:24;101368.38;;;11.23;55.63
31299;BME280;17927;52.350;13.402;2023-02-02T13:38:03;101370.38;;;11.42;56.02
31299;BME280;17927;52.350;13.402;2023-02-02T13:40:39;101380.16;;;11.64;56.45
31299;BME280;17927;52.350;13.402;2023-02-02T13:43:26;101374.44;;;11.88;56.24
31299;BME280;17927;52.350;13.402;2023-02-02T13:46:19;101377.69;;;12.13;56.57
31299;BME280;17927;52.350;13.402;2023-02-02T13:48:55;101390.00;;;12.37;57.14
31299;BME280;17927;52.350;13.402;2023-02-02T13:57:03;101398.03;;;13.17;56.04
31299;BME280;17927;52.350;13.402;2023-02-02T14:00:16;101401.44;;;13.39;55.36
31299;BME280;17927;52.350;13.402;2023-02-02T14:02:45;101406.03;;;13.48;54.75
31299;BME280;17927;52.350;13.402;2023-02-02T14:05:34;101402.28;;;13.59;54.07
31299;BME280;17927;52.350;13.402;2023-02-02T14:08:19;101420.13;;;13.62;53.97
31299;BME280;17927;52.350;13.402;2023-02-02T14:13:20;101420.56;;;13.67;52.69
31299;BME280;17927;52.350;13.402;2023-02-02T14:16:07;101426.38;;;13.72;52.66
31299;BME280;17927;52.350;13.402;2023-02-02T14:23:56;101451.19;;;13.97;52.52
31299;BME280;17927;52.350;13.402;2023-02-02T14:26:42;101457.28;;;14.09;51.83